Time;durP1;ratioP1;P1;durP2;ratioP2;P2;SDS_P1;SDS_P2;PMS_P1;PMS_P2;Temp;Humidity;BMP_temperature;BMP_pressure;BME280_temperature;BME280_humidity;BME280_pressure;Samples;Min_cycle;Max_cycle;Signal;HPM_P1;HPM_P2
2022/01/22 00:01:48;;;;;;;100.88;39.17;;;-0.60;61.60;;;;;;5016660;28;20033;-73
2022/01/22 00:04:14;;;;;;;111.57;40.13;;;-0.50;62.40;;;;;;5012494;28;20065;-73
2022/01/22 00:06:40;;;;;;;115.30;43.20;;;-0.50;62.40;;;;;;5023323;28;20108;-72
2022/01/22 00:09:07;;;;;;;102.32;39.45;;;-0.50;62.40;;;;;;5015814;28;20021;-72
2022/01/22 00:11:38;;;;;;;82.20;34.97;;;-0.50;61.80;;;;;;5024412;28;20046;-73
2022/01/22 00:14:23;;;;;;;99.47;37.70;;;-0.40;62.30;;;;;;5011838;28;20490;-72
2022/01/22 00:17:10;;;;;;;70.80;28.33;;;-0.40;62.20;;;;;;5016407;28;20040;-72
2022/01/22 00:19:36;;;;;;;49.05;20.98;;;-0.50;62.50;;;;;;5020799;28;20048;-72
2022/01/22 00:22:03;;;;;;;45.45;18.92;;;-0.50;62.80;;;;;;5015533;28;20041;-72
2022/01/22 00:24:37;;;;;;;39.95;18.27;;;-0.50;62.20;;;;;;4996289;28;20112;-71
2022/01/22 00:27:04;;;;;;;51.03;22.30;;;-0.50;62.70;;;;;;5012208;28;20038;-72
2022/01/22 00:29:30;;;;;;;53.08;23.75;;;-0.50;62.50;;;;;;5026593;28;20042;-71
2022/01/22 00:31:56;;;;;;;41.28;20.75;;;-0.50;62.10;;;;;;5030867;28;20066;-73
2022/01/22 00:34:22;;;;;;;;;;;-0.40;62.80;;;;;;5024122;28;20086;-73
2022/01/22 00:36:49;;;;;;;70.50;30.77;;;-0.40;62.60;;;;;;4998684;28;19922;-71
2022/01/22 00:39:15;;;;;;;58.50;28.38;;;-0.40;62.50;;;;;;5015726;28;20030;-73
2022/01/22 00:41:44;;;;;;;67.18;31.13;;;-0.40;62.60;;;;;;5027298;28;20042;-71
2022/01/22 00:44:10;;;;;;;57.38;25.88;;;-0.40;62.50;;;;;;5022798;28;20043;-71
2022/01/22 00:46:36;;;;;;;50.88;25.15;;;-0.40;62.70;;;;;;5017066;28;20096;-72
2022/01/22 00:49:03;;;;;;;52.42;23.58;;;-0.50;62.80;;;;;;5021604;28;20628;-71
2022/01/22 00:51:29;;;;;;;53.60;24.80;;;-0.40;62.80;;;;;;5025697;28;21017;-73
2022/01/22 00:53:55;;;;;;;53.03;25.35;;;-0.40;62.80;;;;;;5015519;28;20044;-71
2022/01/22 00:56:21;;;;;;;55.92;27.67;;;-0.40;62.80;;;;;;5026596;28;20069;-72
2022/01/22 00:58:47;;;;;;;59.28;28.20;;;-0.50;63.00;;;;;;5016146;28;20057;-72
2022/01/22 01:01:14;;;;;;;62.80;27.70;;;-0.60;63.00;;;;;;5030090;28;20180;-73
2022/01/22 01:03:40;;;;;;;58.92;26.42;;;-0.70;63.50;;;;;;4994526;28;20125;-72
2022/01/22 01:06:06;;;;;;;52.55;25.70;;;-0.80;63.60;;;;;;5011464;28;20095;-71
2022/01/22 01:08:34;;;;;;;84.50;36.05;;;-0.80;63.70;;;;;;5030496;28;20056;-71
2022/01/22 01:11:02;;;;;;;79.35;36.15;;;-0.90;63.70;;;;;;5010848;28;20434;-71
2022/01/22 01:13:31;;;;;;;58.22;27.38;;;-0.90;63.70;;;;;;5024314;28;20448;-72
2022/01/22 01:32:14;;;;;;;59.25;27.30;;;-1.40;64.30;;;;;;4998871;28;20073;-71
2022/01/22 01:34:43;;;;;;;79.22;32.67;;;-1.50;64.30;;;;;;5006308;28;20038;-71
2022/01/22 01:37:14;;;;;;;68.63;30.10;;;-1.50;64.60;;;;;;5006858;28;20424;-71
2022/01/22 01:39:42;;;;;;;59.83;28.05;;;-1.50;64.40;;;;;;5006957;28;20115;-73
2022/01/22 01:42:17;;;;;;;60.28;27.70;;;-1.60;64.30;;;;;;5009580;28;20398;-71
2022/01/22 01:44:44;;;;;;;70.47;29.52;;;-1.70;64.30;;;;;;5004306;28;20049;-73
2022/01/22 01:47:13;;;;;;;81.45;31.67;;;-1.70;64.50;;;;;;5003241;28;20035;-72
2022/01/22 01:49:40;;;;;;;64.97;28.38;;;-1.70;64.00;;;;;;5000137;28;20038;-72
2022/01/22 01:52:11;;;;;;;60.95;27.30;;;-1.80;64.00;;;;;;5003043;28;20035;-73
2022/01/22 01:59:52;;;;;;;55.28;26.55;;;-1.90;64.30;;;;;;4991622;28;20046;-71
2022/01/22 02:02:21;;;;;;;62.90;31.75;;;-1.90;64.80;;;;;;4972331;28;20046;-71
2022/01/22 02:04:47;;;;;;;50.10;23.45;;;-2.00;64.60;;;;;;5002997;28;20121;-71
2022/01/22 02:07:13;;;;;;;45.10;22.45;;;-2.00;64.80;;;;;;4988795;28;20034;-72
2022/01/22 02:09:41;;;;;;;55.97;22.45;;;-2.00;64.80;;;;;;5005802;28;20026;-71
2022/01/22 02:25:56;;;;;;;42.20;17.83;;;-2.40;64.70;;;;;;5000486;28;20295;-72
2022/01/22 02:28:22;;;;;;;34.05;16.08;;;-2.50;64.70;;;;;;5008807;28;20116;-71
2022/01/22 02:30:51;;;;;;;28.27;15.82;;;-2.60;64.50;;;;;;4996765;28;20038;-72
2022/01/22 02:36:00;;;;;;;40.75;16.90;;;-2.60;64.80;;;;;;5005469;28;20092;-73
2022/01/22 02:38:41;;;;;;;40.72;18.30;;;-2.60;64.70;;;;;;5006864;28;20050;-72
2022/01/22 02:41:13;;;;;;;39.33;19.92;;;-2.70;64.70;;;;;;4991713;28;20038;-71
2022/01/22 02:43:39;;;;;;;44.00;20.70;;;-2.70;64.70;;;;;;5003159;28;20046;-72
2022/01/22 02:46:05;;;;;;;42.67;17.73;;;-2.70;64.80;;;;;;5010094;28;20037;-72
2022/01/22 02:48:31;;;;;;;38.47;17.48;;;-2.80;64.80;;;;;;4989541;28;20045;-71
2022/01/22 02:50:57;;;;;;;39.40;19.55;;;-2.80;64.80;;;;;;5010662;28;20054;-73
2022/01/22 02:53:23;;;;;;;47.97;22.48;;;-2.90;64.90;;;;;;5008388;28;20092;-71
2022/01/22 02:55:50;;;;;;;;;;;-2.80;64.80;;;;;;4978898;28;20049;-72
2022/01/22 02:58:16;;;;;;;56.92;21.88;;;-2.90;64.60;;;;;;5010129;28;19921;-72
2022/01/22 03:00:43;;;;;;;45.25;21.55;;;-2.90;64.40;;;;;;4995420;28;20595;-71
2022/01/22 03:03:09;;;;;;;51.55;23.42;;;-2.90;65.30;;;;;;5000963;28;20042;-71
2022/01/22 03:05:35;;;;;;;53.50;21.75;;;-2.90;64.60;;;;;;5008466;28;20062;-71
2022/01/22 03:08:06;;;;;;;45.63;20.63;;;-2.90;64.00;;;;;;4994568;28;20105;-72
2022/01/22 03:10:33;;;;;;;35.55;16.90;;;-3.00;64.60;;;;;;4995045;28;20046;-72
2022/01/22 03:15:59;;;;;;;;;;;-3.10;64.90;;;;;;5010692;28;20034;-73
2022/01/22 03:18:35;;;;;;;43.35;19.30;;;-3.20;64.80;;;;;;5004718;28;19921;-72
2022/01/22 03:21:29;;;;;;;37.92;17.23;;;-3.20;64.80;;;;;;4993359;28;20133;-71
2022/01/22 03:29:33;;;;;;;38.30;18.65;;;-3.20;64.80;;;;;;4993327;28;20595;-72
2022/01/22 03:32:00;;;;;;;35.75;17.42;;;-3.20;64.80;;;;;;5002867;28;20403;-72
2022/01/22 03:34:28;;;;;;;43.58;19.23;;;-3.20;64.20;;;;;;4991757;28;20046;-72
2022/01/22 03:36:54;;;;;;;46.58;19.38;;;-3.20;64.70;;;;;;5005324;28;20034;-71
2022/01/22 03:39:20;;;;;;;36.25;17.92;;;-3.00;64.60;;;;;;5009080;28;20022;-72
2022/01/22 03:41:47;;;;;;;39.47;17.95;;;-2.90;64.30;;;;;;5009636;28;20398;-72
2022/01/22 03:44:13;;;;;;;50.78;24.27;;;-2.90;63.90;;;;;;4999876;28;20045;-73
2022/01/22 03:46:41;;;;;;;40.97;19.05;;;-2.80;63.90;;;;;;5005232;28;20038;-72
2022/01/22 03:49:10;;;;;;;36.65;16.55;;;-2.80;63.80;;;;;;5006801;28;20041;-71
2022/01/22 03:51:37;;;;;;;31.98;14.77;;;-2.90;63.90;;;;;;4994026;28;20034;-71
2022/01/22 03:54:04;;;;;;;33.83;14.23;;;-2.90;63.90;;;;;;4993161;28;20554;-71
2022/01/22 03:56:30;;;;;;;35.13;14.13;;;-3.00;64.00;;;;;;4992378;28;20050;-71
2022/01/22 03:58:56;;;;;;;;;;;-3.10;64.10;;;;;;5006756;28;20636;-71
2022/01/22 04:04:03;;;;;;;32.63;15.15;;;-3.10;64.00;;;;;;4994873;28;20044;-72
2022/01/22 04:08:58;;;;;;;43.72;19.23;;;-3.00;64.00;;;;;;4998425;28;20466;-71
2022/01/22 04:11:24;;;;;;;53.25;21.10;;;-3.00;64.10;;;;;;4976406;28;20042;-71
2022/01/22 04:13:57;;;;;;;48.10;20.58;;;-3.10;64.30;;;;;;5006975;28;20050;-73
2022/01/22 04:16:23;;;;;;;101.53;37.63;;;-3.10;64.40;;;;;;4992980;28;20088;-73
2022/01/22 04:27:12;;;;;;;43.80;22.08;;;-2.80;63.90;;;;;;5012111;28;20100;-72
2022/01/22 04:29:40;;;;;;;39.42;20.73;;;-2.80;63.70;;;;;;5017960;28;20092;-71
2022/01/22 04:32:07;;;;;;;46.72;20.92;;;-2.70;63.80;;;;;;5027754;28;20372;-72
2022/01/22 04:34:34;;;;;;;51.63;24.70;;;-2.70;63.80;;;;;;5016442;28;20061;-71
2022/01/22 04:37:00;;;;;;;38.92;17.10;;;-2.70;63.30;;;;;;5020798;28;20057;-71
2022/01/22 04:39:27;;;;;;;24.02;11.30;;;-2.60;64.10;;;;;;5018978;28;20025;-72
2022/01/22 04:41:55;;;;;;;33.22;15.57;;;-2.70;64.10;;;;;;5031838;28;20469;-70
2022/01/22 04:52:39;;;;;;;31.10;14.38;;;-2.70;64.20;;;;;;5027547;28;20040;-71
2022/01/22 04:55:07;;;;;;;36.10;14.95;;;-2.70;64.20;;;;;;5013498;28;20137;-74
2022/01/22 04:57:54;;;;;;;52.97;22.45;;;-2.60;64.10;;;;;;5043123;28;20468;-73
2022/01/22 05:00:20;;;;;;;101.90;37.10;;;-2.60;63.90;;;;;;5011578;28;20437;-72
2022/01/22 05:02:46;;;;;;;;;;;-2.50;64.00;;;;;;4997469;28;20391;-71
2022/01/22 05:05:12;;;;;;;116.72;42.97;;;-2.50;63.90;;;;;;5009756;28;19921;-71
2022/01/22 05:07:38;;;;;;;;;;;-2.50;63.90;;;;;;5010852;28;20037;-73
2022/01/22 05:10:06;;;;;;;57.30;22.88;;;-2.50;64.00;;;;;;5003614;28;19928;-72
2022/01/22 05:12:32;;;;;;;36.38;16.33;;;-2.60;64.60;;;;;;5027161;28;20056;-71
2022/01/22 05:14:59;;;;;;;44.42;19.67;;;-2.60;64.60;;;;;;5011267;28;20643;-72
2022/01/22 05:17:25;;;;;;;58.85;29.95;;;-2.50;65.00;;;;;;5009686;28;20050;-71
2022/01/22 05:20:00;;;;;;;108.43;42.90;;;-2.50;65.20;;;;;;5026235;28;20041;-71
2022/01/22 05:24:57;;;;;;;83.82;35.88;;;-2.40;64.70;;;;;;5011284;28;20395;-72
2022/01/22 05:27:40;;;;;;;98.18;36.30;;;-2.30;64.60;;;;;;5012221;28;20037;-72
2022/01/22 05:38:22;;;;;;;37.90;17.23;;;-2.10;63.90;;;;;;5010396;28;20506;-73
2022/01/22 05:40:48;;;;;;;39.42;17.50;;;-2.00;64.20;;;;;;5005689;28;20064;-72
2022/01/22 05:43:14;;;;;;;;;;;-1.90;64.00;;;;;;5027895;28;20077;-72
2022/01/22 05:45:42;;;;;;;26.02;11.07;;;-1.90;63.90;;;;;;5015937;28;19929;-72
2022/01/22 05:48:08;;;;;;;20.65;9.60;;;-1.90;63.80;;;;;;5011808;28;20026;-72
2022/01/22 05:50:47;;;;;;;22.98;10.15;;;-2.00;64.00;;;;;;5037558;28;20092;-71
2022/01/22 06:01:17;;;;;;;21.98;9.85;;;-1.80;63.70;;;;;;5004291;28;20133;-70
2022/01/22 06:03:45;;;;;;;25.10;10.35;;;-1.70;63.70;;;;;;5007415;28;20109;-72
2022/01/22 06:06:11;;;;;;;26.27;10.70;;;-1.70;63.70;;;;;;5014285;28;20034;-71
2022/01/22 06:08:48;;;;;;;31.13;13.35;;;-1.70;63.60;;;;;;5006579;28;20067;-71
2022/01/22 06:11:21;;;;;;;41.22;16.08;;;-1.60;63.70;;;;;;4976404;28;20038;-71
2022/01/22 06:13:48;;;;;;;43.35;16.08;;;-1.60;63.70;;;;;;5005916;28;20042;-73
2022/01/22 06:16:18;;;;;;;40.58;16.90;;;-1.60;63.60;;;;;;5006261;28;20049;-72
2022/01/22 06:18:44;;;;;;;56.88;19.27;;;-1.60;63.60;;;;;;5003481;28;20064;-72
2022/01/22 06:21:11;;;;;;;39.72;15.88;;;-1.70;64.00;;;;;;4991468;28;20064;-73
2022/01/22 06:23:39;;;;;;;35.03;13.88;;;-1.70;64.00;;;;;;4994618;28;20042;-70
2022/01/22 06:26:07;;;;;;;35.03;14.85;;;-1.70;64.00;;;;;;4990402;28;20507;-72
2022/01/22 06:28:34;;;;;;;36.17;14.13;;;-1.70;64.10;;;;;;4990489;28;20048;-71
2022/01/22 06:31:02;;;;;;;22.77;10.93;;;-1.70;64.00;;;;;;4990150;28;20034;-72
2022/01/22 06:33:28;;;;;;;30.10;12.32;;;-1.60;64.00;;;;;;5002805;28;20037;-71
2022/01/22 06:35:54;;;;;;;27.85;12.80;;;-1.60;64.10;;;;;;4973651;28;20027;-72
2022/01/22 06:38:20;;;;;;;26.02;11.98;;;-1.60;64.10;;;;;;4991419;28;20427;-71
2022/01/22 06:43:32;;;;;;;26.23;12.70;;;-1.50;63.40;;;;;;4999017;28;20149;-71
2022/01/22 06:45:59;;;;;;;30.77;12.10;;;-1.50;63.90;;;;;;5013952;28;20038;-72
2022/01/22 06:48:25;;;;;;;33.92;13.32;;;-1.50;64.00;;;;;;4999008;28;20542;-72
2022/01/22 06:50:53;;;;;;;83.13;29.58;;;-1.50;63.90;;;;;;5015030;28;20121;-71
2022/01/22 06:53:19;;;;;;;64.22;28.20;;;-1.60;64.40;;;;;;5026988;28;20034;-72
2022/01/22 06:55:52;;;;;;;50.90;21.45;;;-1.60;64.60;;;;;;5003109;28;20033;-73
2022/01/22 06:58:18;;;;;;;50.60;21.23;;;-1.70;64.80;;;;;;5009759;28;20042;-72
2022/01/22 07:00:45;;;;;;;56.92;23.42;;;-1.80;64.80;;;;;;4993037;28;20096;-71
2022/01/22 07:03:11;;;;;;;38.95;16.92;;;-1.80;64.80;;;;;;5015278;28;20042;-71
2022/01/22 07:05:37;;;;;;;35.55;12.05;;;-1.80;64.80;;;;;;5030872;28;20045;-71
2022/01/22 07:08:03;;;;;;;23.60;11.45;;;-1.80;64.80;;;;;;5018735;28;20122;-72
2022/01/22 07:10:30;;;;;;;25.70;10.52;;;-1.80;64.20;;;;;;5025409;28;20050;-70
2022/01/22 07:12:57;;;;;;;18.58;9.82;;;-1.80;64.90;;;;;;5000597;28;20519;-71
2022/01/22 07:15:23;;;;;;;18.60;8.85;;;-1.80;64.80;;;;;;5017632;28;20107;-71
2022/01/22 07:17:49;;;;;;;;;;;-1.80;65.00;;;;;;5011199;28;20056;-71
2022/01/22 07:25:45;;;;;;;34.92;15.05;;;-1.60;64.60;;;;;;5011962;28;20049;-71
2022/01/22 07:28:12;;;;;;;;;;;-1.50;64.50;;;;;;5027278;28;20061;-71
2022/01/22 07:30:40;;;;;;;37.15;18.80;;;-1.40;64.00;;;;;;5012384;28;19921;-72
2022/01/22 07:33:06;;;;;;;40.08;18.60;;;-1.40;64.00;;;;;;5013188;28;20025;-71
2022/01/22 07:35:34;;;;;;;;;;;-1.40;64.30;;;;;;5028395;28;20103;-71
2022/01/22 07:38:21;;;;;;;41.70;18.00;;;-1.40;65.10;;;;;;5027045;28;20424;-72
2022/01/22 07:40:47;;;;;;;;;;;-1.50;64.20;;;;;;5045955;28;20065;-72
2022/01/22 07:43:17;;;;;;;33.22;13.80;;;-1.40;64.30;;;;;;5020911;28;20197;-71
2022/01/22 07:45:44;;;;;;;27.73;12.15;;;-1.40;64.20;;;;;;5042192;28;20302;-71
2022/01/22 07:48:10;;;;;;;58.67;27.75;;;-1.40;64.40;;;;;;5027398;28;20034;-71
2022/01/22 07:50:36;;;;;;;;;;;-1.30;64.60;;;;;;5031832;28;20103;-73
2022/01/22 07:53:03;;;;;;;39.70;19.98;;;-1.30;64.60;;;;;;5029943;28;19921;-71
2022/01/22 07:55:30;;;;;;;32.50;13.60;;;-1.30;63.90;;;;;;5011200;28;20053;-71
2022/01/22 07:57:57;;;;;;;28.20;14.27;;;-1.30;64.20;;;;;;5044023;28;20091;-73
2022/01/22 08:00:23;;;;;;;32.22;15.20;;;-1.20;64.80;;;;;;5011708;28;20034;-71
2022/01/22 08:02:49;;;;;;;;;;;-1.20;64.80;;;;;;5013992;28;20125;-72
2022/01/22 08:05:15;;;;;;;24.00;11.18;;;-1.10;64.90;;;;;;5011165;28;20386;-71
2022/01/22 08:07:45;;;;;;;35.53;14.88;;;-1.10;64.60;;;;;;5011053;28;20462;-72
2022/01/22 08:10:13;;;;;;;24.40;13.15;;;-1.10;64.60;;;;;;5011737;28;20034;-73
2022/01/22 08:12:42;;;;;;;28.27;13.43;;;-1.00;64.90;;;;;;5010836;28;20033;-73
2022/01/22 08:15:12;;;;;;;21.80;11.38;;;-0.90;65.00;;;;;;5029810;28;20382;-71
2022/01/22 08:17:38;;;;;;;17.88;8.15;;;-0.70;64.90;;;;;;5010324;28;20037;-72
2022/01/22 08:20:05;;;;;;;21.23;9.18;;;-0.50;64.80;;;;;;5014292;28;20394;-71
2022/01/22 08:22:31;;;;;;;19.55;10.07;;;-0.30;64.50;;;;;;5027233;28;20457;-71
2022/01/22 08:25:00;;;;;;;;;;;-0.20;64.80;;;;;;5028351;28;20117;-72
2022/01/22 08:29:53;;;;;;;9.95;3.30;;;0.20;65.90;;;;;;5029168;28;20025;-71
2022/01/22 08:37:39;;;;;;;10.02;3.55;;;1.40;64.70;;;;;;5027208;28;20052;-72
2022/01/22 08:40:07;;;;;;;;;;;1.50;64.30;;;;;;5024351;28;20517;-71
2022/01/22 08:42:33;;;;;;;18.45;8.20;;;1.50;64.20;;;;;;5022534;28;20432;-73
2022/01/22 08:44:59;;;;;;;15.55;6.47;;;1.60;64.10;;;;;;5028661;28;20041;-73
2022/01/22 08:47:25;;;;;;;;;;;1.70;64.00;;;;;;5030077;28;20048;-72
2022/01/22 08:49:52;;;;;;;20.27;8.23;;;1.70;63.80;;;;;;5027205;28;19924;-73
2022/01/22 08:52:22;;;;;;;20.83;7.72;;;1.80;63.50;;;;;;5026404;28;20100;-73
2022/01/22 08:54:49;;;;;;;16.00;6.90;;;1.90;63.40;;;;;;5015882;28;20037;-73
2022/01/22 08:57:15;;;;;;;22.65;10.63;;;2.00;63.20;;;;;;4999041;28;20083;-73
2022/01/22 08:59:42;;;;;;;14.70;7.90;;;2.00;63.10;;;;;;5013006;28;20144;-73
2022/01/22 09:02:08;;;;;;;;;;;2.20;63.20;;;;;;5028535;28;20327;-71
2022/01/22 09:04:34;;;;;;;18.75;8.18;;;4.20;60.00;;;;;;5014113;28;19939;-72
2022/01/22 09:07:00;;;;;;;;;;;6.70;53.30;;;;;;5015523;28;20102;-73
2022/01/22 09:09:27;;;;;;;11.63;5.25;;;7.30;51.50;;;;;;5028376;28;19921;-71
2022/01/22 09:11:54;;;;;;;18.55;2.78;;;8.40;51.20;;;;;;5011588;28;20033;-73
2022/01/22 09:14:21;;;;;;;3.85;1.58;;;10.20;47.30;;;;;;5026174;28;20087;-73
2022/01/22 09:16:49;;;;;;;5.97;2.03;;;10.40;43.50;;;;;;5026521;28;20034;-72
2022/01/22 09:19:16;;;;;;;4.65;1.80;;;10.50;44.60;;;;;;4999575;28;20041;-74
2022/01/22 09:21:46;;;;;;;6.03;2.25;;;10.70;42.90;;;;;;5020726;28;20045;-74
2022/01/22 09:24:17;;;;;;;6.78;2.33;;;11.00;41.90;;;;;;5016211;28;20108;-74
2022/01/22 09:26:44;;;;;;;9.00;2.55;;;10.90;41.50;;;;;;5027960;28;20029;-72
2022/01/22 09:29:10;;;;;;;5.85;2.05;;;10.80;40.30;;;;;;5026033;28;20053;-74
2022/01/22 09:31:36;;;;;;;;;;;11.00;39.90;;;;;;5012118;28;20061;-72
2022/01/22 09:34:03;;;;;;;6.22;1.95;;;11.00;40.80;;;;;;5026954;28;19923;-73
2022/01/22 09:36:31;;;;;;;5.25;2.17;;;10.50;40.70;;;;;;5026900;28;20103;-74
2022/01/22 09:38:58;;;;;;;7.13;2.13;;;9.90;41.40;;;;;;5027714;28;20029;-73
2022/01/22 09:41:27;;;;;;;6.65;1.67;;;9.60;41.90;;;;;;5026653;28;20037;-73
2022/01/22 09:43:53;;;;;;;6.00;2.00;;;9.80;40.60;;;;;;5021167;28;20091;-74
2022/01/22 09:46:21;;;;;;;5.72;2.10;;;9.90;40.60;;;;;;5019607;28;20100;-73
2022/01/22 09:48:50;;;;;;;6.75;2.13;;;10.10;40.00;;;;;;5028009;28;20037;-74
2022/01/22 09:51:16;;;;;;;5.25;2.13;;;10.70;39.50;;;;;;5008123;28;20091;-74
2022/01/22 09:53:43;;;;;;;4.97;1.73;;;11.40;37.90;;;;;;5028926;28;20125;-73
2022/01/22 09:56:10;;;;;;;7.03;2.28;;;11.10;38.30;;;;;;5025626;28;20037;-74
2022/01/22 09:58:36;;;;;;;5.30;1.88;;;10.50;39.10;;;;;;5026001;28;20425;-73
2022/01/22 10:01:40;;;;;;;6.80;2.35;;;10.50;39.10;;;;;;5013651;28;20089;-74
2022/01/22 10:04:08;;;;;;;8.20;2.30;;;11.00;38.70;;;;;;5009778;28;20046;-74
2022/01/22 10:07:03;;;;;;;8.52;3.28;;;11.80;36.60;;;;;;5013261;28;20034;-73
2022/01/22 10:12:21;;;;;;;8.80;3.17;;;12.20;35.00;;;;;;5010441;28;20033;-74
2022/01/22 10:15:13;;;;;;;7.22;2.40;;;12.00;36.20;;;;;;5016466;28;20038;-73
2022/01/22 10:17:58;;;;;;;10.63;3.55;;;11.50;36.10;;;;;;5025137;28;20125;-74
2022/01/22 10:20:24;;;;;;;8.95;3.00;;;11.20;37.20;;;;;;5009685;28;20037;-74
2022/01/22 10:23:20;;;;;;;4.90;1.90;;;11.10;37.10;;;;;;5027974;28;20376;-73
2022/01/22 10:26:11;;;;;;;6.63;1.85;;;10.60;37.60;;;;;;5001614;28;20491;-74
2022/01/22 10:29:01;;;;;;;5.50;1.90;;;11.20;37.20;;;;;;5021720;28;20060;-74
2022/01/22 10:31:42;;;;;;;8.80;3.00;;;11.70;35.60;;;;;;5018292;28;20042;-74
2022/01/22 10:34:11;;;;;;;8.65;3.20;;;11.10;36.50;;;;;;4997244;28;20034;-73
2022/01/22 10:36:39;;;;;;;5.80;2.00;;;10.80;36.40;;;;;;5014318;28;20096;-74
2022/01/22 10:39:26;;;;;;;5.70;1.88;;;10.90;36.40;;;;;;5010481;28;20022;-74
2022/01/22 10:41:53;;;;;;;9.13;3.22;;;11.20;36.70;;;;;;5024661;28;20072;-74
2022/01/22 10:44:40;;;;;;;6.30;2.72;;;11.20;35.70;;;;;;5024387;28;20441;-74
2022/01/22 10:47:36;;;;;;;5.78;2.42;;;10.90;35.50;;;;;;5024913;28;20038;-73
2022/01/22 10:50:23;;;;;;;4.78;1.60;;;10.70;36.10;;;;;;5009474;28;20038;-72
2022/01/22 10:53:09;;;;;;;6.65;2.53;;;10.90;35.50;;;;;;5009181;28;20049;-73
2022/01/22 10:56:14;;;;;;;8.32;3.08;;;10.70;35.60;;;;;;5025865;28;20128;-73
2022/01/22 10:59:19;;;;;;;7.25;2.83;;;10.40;36.10;;;;;;5017457;28;20046;-74
2022/01/22 11:02:06;;;;;;;5.47;2.00;;;10.40;35.60;;;;;;5023677;28;20502;-73
2022/01/22 11:04:51;;;;;;;5.20;1.77;;;10.50;35.90;;;;;;5026322;28;20041;-74
2022/01/22 11:07:19;;;;;;;7.22;2.55;;;10.60;36.20;;;;;;5014036;28;20042;-73
2022/01/22 11:09:47;;;;;;;5.30;1.75;;;10.60;35.80;;;;;;5028542;28;20188;-74
2022/01/22 11:12:13;;;;;;;6.53;2.47;;;10.60;35.90;;;;;;5019912;28;20057;-74
2022/01/22 11:14:42;;;;;;;8.02;3.38;;;10.70;36.10;;;;;;5027902;28;20056;-74
2022/01/22 11:17:08;;;;;;;6.45;2.08;;;10.70;36.00;;;;;;5029090;28;20038;-73
2022/01/22 11:19:38;;;;;;;5.25;1.77;;;10.80;35.40;;;;;;5013861;28;20042;-74
2022/01/22 11:22:09;;;;;;;8.23;2.45;;;10.80;35.50;;;;;;4996400;28;20037;-74
2022/01/22 11:24:39;;;;;;;6.75;2.47;;;10.80;35.50;;;;;;5012661;28;20490;-73
2022/01/22 11:27:09;;;;;;;8.27;3.15;;;11.10;35.70;;;;;;5014664;28;20034;-74
2022/01/22 11:30:16;;;;;;;5.75;2.03;;;11.60;34.20;;;;;;5003267;28;20037;-73
2022/01/22 11:33:05;;;;;;;6.40;2.03;;;11.60;34.10;;;;;;5028664;28;20037;-73
2022/01/22 11:36:27;;;;;;;6.45;2.05;;;11.40;34.40;;;;;;5018248;28;20052;-73
2022/01/22 11:38:56;;;;;;;9.00;3.00;;;11.30;34.30;;;;;;5031138;28;20087;-73
2022/01/22 11:41:24;;;;;;;4.53;1.83;;;11.20;34.60;;;;;;4997988;28;20521;-72
2022/01/22 11:47:26;;;;;;;5.90;2.05;;;11.40;34.40;;;;;;5013325;28;20042;-73
2022/01/22 11:50:13;;;;;;;4.88;1.73;;;11.30;34.50;;;;;;5013646;28;20037;-74
2022/01/22 11:52:41;;;;;;;17.70;5.22;;;11.40;34.10;;;;;;5004250;28;20041;-74
2022/01/22 11:55:26;;;;;;;18.00;3.92;;;11.90;34.20;;;;;;5007886;28;20196;-73
2022/01/22 11:58:06;;;;;;;24.23;9.45;;;12.50;33.70;;;;;;5029758;28;20502;-73
2022/01/22 12:00:41;;;;;;;18.67;7.07;;;12.40;33.90;;;;;;5013580;28;20112;-74
2022/01/22 12:03:10;;;;;;;22.95;9.23;;;12.30;34.30;;;;;;5028648;28;20033;-74
2022/01/22 12:05:54;;;;;;;24.58;11.63;;;12.00;35.40;;;;;;5013319;28;20042;-73
2022/01/22 12:08:22;;;;;;;18.17;8.48;;;11.70;35.70;;;;;;5013107;28;20045;-74
2022/01/22 12:16:51;;;;;;;16.50;6.90;;;11.90;34.90;;;;;;5012264;28;20402;-74
2022/01/22 12:22:42;;;;;;;34.67;10.45;;;11.70;35.00;;;;;;5027914;28;20048;-74
2022/01/22 12:25:46;;;;;;;16.13;7.57;;;11.60;35.10;;;;;;5012063;28;20080;-73
2022/01/22 12:28:14;;;;;;;11.85;4.88;;;11.50;35.20;;;;;;5027147;28;20509;-74
2022/01/22 12:30:43;;;;;;;11.25;4.63;;;11.30;35.70;;;;;;5023923;28;20069;-74
2022/01/22 12:33:14;;;;;;;20.58;8.45;;;11.20;35.90;;;;;;5013472;28;20073;-73
2022/01/22 12:36:01;;;;;;;15.55;8.23;;;11.20;36.00;;;;;;5022437;28;20438;-74
2022/01/22 12:39:27;;;;;;;16.13;8.02;;;11.20;36.00;;;;;;5011251;28;20034;-74
2022/01/22 12:41:57;;;;;;;12.95;7.35;;;11.20;36.10;;;;;;5012877;28;20061;-73
2022/01/22 12:44:33;;;;;;;14.30;6.13;;;11.20;36.30;;;;;;5026818;28;20568;-73
2022/01/22 12:47:05;;;;;;;14.57;7.35;;;11.30;36.20;;;;;;5019193;28;20041;-73
2022/01/22 12:49:34;;;;;;;18.58;9.13;;;11.30;36.00;;;;;;5010470;28;20498;-74
2022/01/22 12:52:20;;;;;;;21.70;10.38;;;11.20;35.80;;;;;;5027804;28;20072;-73
2022/01/22 12:54:49;;;;;;;16.77;8.23;;;11.10;36.10;;;;;;5010716;28;20056;-73
2022/01/22 12:57:17;;;;;;;17.17;8.55;;;11.20;36.10;;;;;;5027546;28;20041;-73
2022/01/22 13:00:09;;;;;;;16.65;8.70;;;11.00;36.20;;;;;;5027076;28;20390;-74
2022/01/22 13:02:55;;;;;;;15.50;8.43;;;10.80;36.50;;;;;;5020794;28;20053;-74
2022/01/22 13:05:25;;;;;;;14.10;5.63;;;10.60;37.00;;;;;;5020865;28;20075;-74
2022/01/22 13:07:56;;;;;;;18.73;7.20;;;10.40;36.80;;;;;;5027075;28;20041;-74
2022/01/22 13:11:01;;;;;;;21.10;9.40;;;10.10;37.30;;;;;;5027421;28;20034;-74
2022/01/22 13:13:28;;;;;;;26.45;10.25;;;9.60;38.10;;;;;;5027266;28;20038;-72
2022/01/22 13:16:17;;;;;;;22.17;9.35;;;9.30;38.60;;;;;;5010972;28;20038;-73
2022/01/22 13:19:01;;;;;;;15.48;6.63;;;9.00;39.10;;;;;;5030932;28;20033;-73
2022/01/22 13:22:05;;;;;;;13.55;5.80;;;8.90;39.70;;;;;;5025341;28;20113;-72
2022/01/22 13:24:35;;;;;;;16.20;5.05;;;8.80;39.80;;;;;;5017111;28;20386;-72
2022/01/22 13:27:20;;;;;;;14.45;5.65;;;8.60;40.20;;;;;;5041311;28;20037;-73
2022/01/22 13:29:54;;;;;;;10.88;5.10;;;8.50;40.80;;;;;;5024303;28;20058;-73
2022/01/22 13:35:20;;;;;;;15.10;4.70;;;8.40;40.30;;;;;;5020946;28;20044;-72
2022/01/22 13:49:52;;;;;;;21.15;7.72;;;8.00;41.90;;;;;;5026862;28;20053;-73
2022/01/22 13:52:20;;;;;;;14.23;6.20;;;7.90;42.20;;;;;;4995027;28;20406;-73
2022/01/22 13:54:51;;;;;;;14.98;7.20;;;7.80;42.50;;;;;;5023762;28;20069;-72
2022/01/22 13:57:38;;;;;;;13.63;6.32;;;7.80;42.70;;;;;;4997734;28;20059;-72
2022/01/22 14:00:24;;;;;;;13.45;7.15;;;7.70;43.00;;;;;;5027064;28;20129;-74
2022/01/22 14:03:04;;;;;;;15.77;8.23;;;7.60;43.40;;;;;;5012935;28;20124;-72
2022/01/22 14:05:31;;;;;;;23.13;10.05;;;7.50;43.70;;;;;;5021102;28;20042;-71
2022/01/22 14:08:17;;;;;;;20.20;10.55;;;7.20;44.40;;;;;;5010419;28;20046;-73
2022/01/22 14:10:43;;;;;;;65.40;24.67;;;7.10;45.00;;;;;;5017349;28;20045;-73
2022/01/22 14:13:13;;;;;;;55.60;23.63;;;6.90;45.20;;;;;;5017399;28;20025;-71
2022/01/22 14:16:19;;;;;;;138.23;50.30;;;6.80;45.50;;;;;;5017773;28;20421;-73
2022/01/22 14:18:47;;;;;;;30.60;16.42;;;6.80;45.80;;;;;;5014523;28;20121;-72
2022/01/22 14:21:32;;;;;;;19.48;9.48;;;6.80;45.30;;;;;;5010031;28;20041;-74
2022/01/22 14:24:09;;;;;;;15.98;7.32;;;6.70;46.50;;;;;;5021560;28;20045;-73
2022/01/22 14:26:36;;;;;;;16.27;7.20;;;6.60;47.00;;;;;;5014256;28;20025;-72
2022/01/22 14:29:07;;;;;;;11.60;5.55;;;6.50;47.40;;;;;;5033047;28;20040;-72
2022/01/22 14:31:57;;;;;;;9.95;4.25;;;6.40;48.00;;;;;;5009943;28;20038;-72
2022/01/22 14:34:43;;;;;;;8.02;3.72;;;6.30;48.60;;;;;;5012244;28;20107;-71
2022/01/22 14:37:42;;;;;;;10.50;4.03;;;6.20;49.30;;;;;;5025067;28;20491;-72
2022/01/22 14:46:05;;;;;;;9.57;4.22;;;5.90;50.10;;;;;;5019724;28;20176;-73
2022/01/22 14:48:31;;;;;;;10.98;5.07;;;5.80;50.60;;;;;;5029295;28;20565;-71
2022/01/22 14:50:58;;;;;;;13.18;4.82;;;5.80;50.90;;;;;;5030789;28;20038;-71
2022/01/22 14:53:25;;;;;;;16.15;6.20;;;5.80;51.00;;;;;;5029756;28;20037;-73
2022/01/22 14:55:59;;;;;;;15.05;7.13;;;5.80;51.10;;;;;;5032247;28;20045;-74
2022/01/22 14:58:25;;;;;;;28.00;12.73;;;5.80;51.10;;;;;;5014838;28;20045;-72
2022/01/22 15:00:51;;;;;;;23.73;11.50;;;5.80;51.40;;;;;;5019961;28;20037;-73
2022/01/22 15:03:17;;;;;;;34.38;16.38;;;5.70;51.60;;;;;;5031510;28;20490;-73
2022/01/22 15:05:44;;;;;;;20.17;10.32;;;5.70;51.90;;;;;;5013105;28;20042;-73
2022/01/22 15:08:10;;;;;;;10.95;5.50;;;5.60;52.00;;;;;;5012978;28;20042;-71
2022/01/22 15:10:36;;;;;;;10.25;3.92;;;5.60;52.80;;;;;;5013582;28;20045;-71
2022/01/22 15:13:02;;;;;;;12.30;4.70;;;5.50;53.40;;;;;;5013056;28;20041;-73
2022/01/22 15:15:35;;;;;;;11.25;4.35;;;5.50;53.70;;;;;;5012637;28;20037;-71
2022/01/22 15:18:12;;;;;;;10.10;4.70;;;5.40;53.90;;;;;;5027056;28;20030;-74
2022/01/22 15:20:40;;;;;;;9.38;3.97;;;5.40;54.60;;;;;;5012849;28;20030;-72
2022/01/22 15:23:06;;;;;;;15.50;5.80;;;5.30;55.20;;;;;;5010778;28;20125;-71